sensor_id;sensor_type;location;lat;lon;timestamp;pressure;altitude;pressure_sealevel;temperature;humidity
71772;BME280;59606;52.138;5.424;2023-07-02T00:00:06;100752.44;;;17.19;82.91
71772;BME280;59606;52.138;5.424;2023-07-02T00:02:33;100748.88;;;17.20;83.64
71772;BME280;59606;52.138;5.424;2023-07-02T00:05:00;100740.50;;;17.15;84.07
71772;BME280;59606;52.138;5.424;2023-07-02T00:07:27;100737.63;;;17.18;84.92
71772;BME280;59606;52.138;5.424;2023-07-02T00:09:53;100731.28;;;17.21;84.48
71772;BME280;59606;52.138;5.424;2023-07-02T00:12:20;100724.84;;;17.14;85.11
71772;BME280;59606;52.138;5.424;2023-07-02T00:14:47;100738.63;;;17.06;84.97
71772;BME280;59606;52.138;5.424;2023-07-02T00:17:13;100745.84;;;17.04;84.98
71772;BME280;59606;52.138;5.424;2023-07-02T00:19:40;100745.00;;;17.04;85.95
71772;BME280;59606;52.138;5.424;2023-07-02T00:22:09;100759.25;;;17.01;85.09
71772;BME280;59606;52.138;5.424;2023-07-02T00:24:36;100762.00;;;17.00;84.92
71772;BME280;59606;52.138;5.424;2023-07-02T00:27:03;100769.06;;;16.99;85.55
71772;BME280;59606;52.138;5.424;2023-07-02T00:29:30;100764.63;;;17.00;85.98
71772;BME280;59606;52.138;5.424;2023-07-02T00:31:56;100770.88;;;16.99;85.61
71772;BME280;59606;52.138;5.424;2023-07-02T00:34:23;100764.19;;;16.94;85.56
71772;BME280;59606;52.138;5.424;2023-07-02T00:36:50;100759.28;;;16.90;85.59
71772;BME280;59606;52.138;5.424;2023-07-02T00:39:17;100767.09;;;16.91;85.81
71772;BME280;59606;52.138;5.424;2023-07-02T00:41:44;100766.09;;;16.92;85.79
71772;BME280;59606;52.138;5.424;2023-07-02T00:44:13;100762.06;;;16.88;84.60
71772;BME280;59606;52.138;5.424;2023-07-02T00:46:40;100776.19;;;16.87;83.96
71772;BME280;59606;52.138;5.424;2023-07-02T00:49:08;100769.38;;;16.85;83.91
71772;BME280;59606;52.138;5.424;2023-07-02T00:51:34;100776.44;;;16.84;81.69
71772;BME280;59606;52.138;5.424;2023-07-02T00:54:01;100774.75;;;16.83;81.06
71772;BME280;59606;52.138;5.424;2023-07-02T00:56:27;100780.53;;;16.77;79.89
71772;BME280;59606;52.138;5.424;2023-07-02T00:58:54;100779.94;;;16.73;80.04
71772;BME280;59606;52.138;5.424;2023-07-02T01:01:26;100772.97;;;16.72;79.99
71772;BME280;59606;52.138;5.424;2023-07-02T01:04:05;100778.38;;;16.71;77.95
71772;BME280;59606;52.138;5.424;2023-07-02T01:06:35;100778.38;;;16.71;77.82
71772;BME280;59606;52.138;5.424;2023-07-02T01:09:05;100781.97;;;16.70;77.92
71772;BME280;59606;52.138;5.424;2023-07-02T01:11:40;100783.88;;;16.68;78.77
71772;BME280;59606;52.138;5.424;2023-07-02T01:14:13;100792.03;;;16.65;78.40
71772;BME280;59606;52.138;5.424;2023-07-02T01:16:43;100790.59;;;16.61;79.19
71772;BME280;59606;52.138;5.424;2023-07-02T01:19:13;100781.31;;;16.57;79.37
71772;BME280;59606;52.138;5.424;2023-07-02T01:21:46;100786.09;;;16.52;79.46
71772;BME280;59606;52.138;5.424;2023-07-02T01:24:16;100781.06;;;16.48;80.47
71772;BME280;59606;52.138;5.424;2023-07-02T01:26:43;100785.97;;;16.42;80.33
71772;BME280;59606;52.138;5.424;2023-07-02T01:29:16;100789.09;;;16.36;80.37
71772;BME280;59606;52.138;5.424;2023-07-02T01:31:43;100794.84;;;16.30;79.55
71772;BME280;59606;52.138;5.424;2023-07-02T01:34:11;100791.88;;;16.23;80.47
71772;BME280;59606;52.138;5.424;2023-07-02T01:36:39;100792.38;;;16.17;80.40
71772;BME280;59606;52.138;5.424;2023-07-02T01:39:06;100795.72;;;16.08;80.22
71772;BME280;59606;52.138;5.424;2023-07-02T01:41:50;100788.56;;;15.98;80.37
71772;BME280;59606;52.138;5.424;2023-07-02T01:44:17;100789.88;;;15.93;80.92
71772;BME280;59606;52.138;5.424;2023-07-02T01:46:45;100790.38;;;15.87;80.73
71772;BME280;59606;52.138;5.424;2023-07-02T01:49:16;100786.41;;;15.81;80.90
71772;BME280;59606;52.138;5.424;2023-07-02T01:52:00;100787.47;;;15.78;81.29
71772;BME280;59606;52.138;5.424;2023-07-02T01:54:27;100796.78;;;15.71;82.14
71772;BME280;59606;52.138;5.424;2023-07-02T01:56:55;100792.94;;;15.64;81.69
71772;BME280;59606;52.138;5.424;2023-07-02T01:59:22;100797.59;;;15.61;82.13
71772;BME280;59606;52.138;5.424;2023-07-02T02:01:48;100797.22;;;15.54;81.11
71772;BME280;59606;52.138;5.424;2023-07-02T02:04:15;100802.84;;;15.49;81.47
71772;BME280;59606;52.138;5.424;2023-07-02T02:06:42;100795.78;;;15.50;81.68
71772;BME280;59606;52.138;5.424;2023-07-02T02:09:09;100805.47;;;15.49;81.86
71772;BME280;59606;52.138;5.424;2023-07-02T02:11:39;100802.34;;;15.44;81.46
71772;BME280;59606;52.138;5.424;2023-07-02T02:14:06;100801.00;;;15.39;81.61
71772;BME280;59606;52.138;5.424;2023-07-02T02:16:32;100805.53;;;15.37;81.99
71772;BME280;59606;52.138;5.424;2023-07-02T02:19:03;100803.03;;;15.35;82.07
71772;BME280;59606;52.138;5.424;2023-07-02T02:21:30;100803.38;;;15.30;81.92
71772;BME280;59606;52.138;5.424;2023-07-02T02:23:57;100808.84;;;15.27;82.55
71772;BME280;59606;52.138;5.424;2023-07-02T02:26:24;100799.78;;;15.20;81.85
71772;BME280;59606;52.138;5.424;2023-07-02T02:28:51;100801.50;;;15.08;81.97
71772;BME280;59606;52.138;5.424;2023-07-02T02:31:18;100811.53;;;15.03;82.15
71772;BME280;59606;52.138;5.424;2023-07-02T02:33:45;100808.78;;;15.05;82.38
71772;BME280;59606;52.138;5.424;2023-07-02T02:36:11;100812.22;;;15.05;82.04
71772;BME280;59606;52.138;5.424;2023-07-02T02:38:38;100818.56;;;15.03;81.73
71772;BME280;59606;52.138;5.424;2023-07-02T02:41:04;100820.81;;;14.96;81.75
71772;BME280;59606;52.138;5.424;2023-07-02T02:43:32;100820.28;;;14.91;81.23
71772;BME280;59606;52.138;5.424;2023-07-02T02:45:59;100829.69;;;14.82;81.07
71772;BME280;59606;52.138;5.424;2023-07-02T02:48:25;100828.00;;;14.81;81.85
71772;BME280;59606;52.138;5.424;2023-07-02T02:50:52;100820.94;;;14.82;81.52
71772;BME280;59606;52.138;5.424;2023-07-02T02:53:18;100831.56;;;14.80;81.31
71772;BME280;59606;52.138;5.424;2023-07-02T02:55:45;100822.34;;;14.75;81.64
71772;BME280;59606;52.138;5.424;2023-07-02T02:58:11;100828.56;;;14.74;81.58
71772;BME280;59606;52.138;5.424;2023-07-02T03:00:38;100825.66;;;14.66;81.75
71772;BME280;59606;52.138;5.424;2023-07-02T03:03:08;100825.75;;;14.64;81.75
71772;BME280;59606;52.138;5.424;2023-07-02T03:05:35;100826.81;;;14.61;82.23
71772;BME280;59606;52.138;5.424;2023-07-02T03:08:02;100826.19;;;14.58;82.32
71772;BME280;59606;52.138;5.424;2023-07-02T03:10:28;100835.13;;;14.55;82.30
71772;BME280;59606;52.138;5.424;2023-07-02T03:12:55;100833.56;;;14.53;82.48
71772;BME280;59606;52.138;5.424;2023-07-02T03:15:22;100844.06;;;14.53;82.53
71772;BME280;59606;52.138;5.424;2023-07-02T03:17:49;100841.81;;;14.47;82.47
71772;BME280;59606;52.138;5.424;2023-07-02T03:20:15;100838.69;;;14.42;82.88
71772;BME280;59606;52.138;5.424;2023-07-02T03:22:43;100850.34;;;14.37;82.69
71772;BME280;59606;52.138;5.424;2023-07-02T03:25:09;100842.81;;;14.33;82.68
71772;BME280;59606;52.138;5.424;2023-07-02T03:27:36;100844.69;;;14.31;82.85
71772;BME280;59606;52.138;5.424;2023-07-02T03:30:03;100843.97;;;14.29;83.70
71772;BME280;59606;52.138;5.424;2023-07-02T03:32:31;100858.00;;;14.28;83.69
71772;BME280;59606;52.138;5.424;2023-07-02T03:34:57;100852.88;;;14.26;83.30
71772;BME280;59606;52.138;5.424;2023-07-02T03:37:24;100850.56;;;14.22;83.42
71772;BME280;59606;52.138;5.424;2023-07-02T03:39:50;100853.50;;;14.17;84.01
71772;BME280;59606;52.138;5.424;2023-07-02T03:42:17;100848.91;;;14.21;83.79
71772;BME280;59606;52.138;5.424;2023-07-02T03:44:43;100849.63;;;14.23;83.59
71772;BME280;59606;52.138;5.424;2023-07-02T03:47:10;100851.44;;;14.22;83.76
71772;BME280;59606;52.138;5.424;2023-07-02T03:49:38;100862.63;;;14.24;84.16
71772;BME280;59606;52.138;5.424;2023-07-02T03:52:05;100865.44;;;14.21;84.29
71772;BME280;59606;52.138;5.424;2023-07-02T03:54:32;100864.84;;;14.18;84.47
71772;BME280;59606;52.138;5.424;2023-07-02T03:56:58;100869.25;;;14.17;84.73
71772;BME280;59606;52.138;5.424;2023-07-02T03:59:25;100869.16;;;14.19;84.70
71772;BME280;59606;52.138;5.424;2023-07-02T04:01:51;100876.06;;;14.20;85.03
71772;BME280;59606;52.138;5.424;2023-07-02T04:04:18;100863.56;;;14.23;85.27
71772;BME280;59606;52.138;5.424;2023-07-02T04:06:44;100877.41;;;14.25;85.08
71772;BME280;59606;52.138;5.424;2023-07-02T04:09:11;100873.00;;;14.26;85.09
71772;BME280;59606;52.138;5.424;2023-07-02T04:11:37;100881.09;;;14.23;84.49
71772;BME280;59606;52.138;5.424;2023-07-02T04:14:06;100877.63;;;14.22;84.40
71772;BME280;59606;52.138;5.424;2023-07-02T04:16:32;100871.66;;;14.20;84.79
71772;BME280;59606;52.138;5.424;2023-07-02T04:18:59;100882.13;;;14.20;84.57
71772;BME280;59606;52.138;5.424;2023-07-02T04:21:26;100881.09;;;14.23;84.27
71772;BME280;59606;52.138;5.424;2023-07-02T04:23:53;100891.56;;;14.23;84.55
71772;BME280;59606;52.138;5.424;2023-07-02T04:26:20;100889.56;;;14.26;84.09
71772;BME280;59606;52.138;5.424;2023-07-02T04:29:07;100894.69;;;14.28;83.60
71772;BME280;59606;52.138;5.424;2023-07-02T04:31:33;100884.22;;;14.28;83.33
71772;BME280;59606;52.138;5.424;2023-07-02T04:34:00;100886.75;;;14.29;83.62
71772;BME280;59606;52.138;5.424;2023-07-02T04:36:27;100888.53;;;14.29;82.97
71772;BME280;59606;52.138;5.424;2023-07-02T04:38:55;100898.16;;;14.28;83.43
71772;BME280;59606;52.138;5.424;2023-07-02T04:41:21;100894.47;;;14.31;83.50
71772;BME280;59606;52.138;5.424;2023-07-02T04:43:48;100894.28;;;14.34;83.33
71772;BME280;59606;52.138;5.424;2023-07-02T04:46:15;100905.38;;;14.37;83.33
71772;BME280;59606;52.138;5.424;2023-07-02T04:48:41;100903.28;;;14.43;83.55
71772;BME280;59606;52.138;5.424;2023-07-02T04:51:08;100896.88;;;14.47;83.80
71772;BME280;59606;52.138;5.424;2023-07-02T04:53:34;100901.72;;;14.53;83.98
71772;BME280;59606;52.138;5.424;2023-07-02T04:56:01;100895.31;;;14.57;83.82
71772;BME280;59606;52.138;5.424;2023-07-02T04:58:27;100898.56;;;14.60;83.72
71772;BME280;59606;52.138;5.424;2023-07-02T05:00:54;100906.94;;;14.66;83.71
71772;BME280;59606;52.138;5.424;2023-07-02T05:03:20;100910.19;;;14.69;83.59
71772;BME280;59606;52.138;5.424;2023-07-02T05:05:47;100910.81;;;14.73;83.43
71772;BME280;59606;52.138;5.424;2023-07-02T05:08:14;100910.47;;;14.77;83.66
71772;BME280;59606;52.138;5.424;2023-07-02T05:10:40;100907.28;;;14.85;83.67
71772;BME280;59606;52.138;5.424;2023-07-02T05:13:07;100914.44;;;14.83;82.86
71772;BME280;59606;52.138;5.424;2023-07-02T05:15:33;100915.28;;;14.83;83.12
71772;BME280;59606;52.138;5.424;2023-07-02T05:18:00;100921.28;;;14.85;82.96
71772;BME280;59606;52.138;5.424;2023-07-02T05:20:27;100922.09;;;14.86;83.16
71772;BME280;59606;52.138;5.424;2023-07-02T05:22:53;100924.50;;;14.89;82.92
71772;BME280;59606;52.138;5.424;2023-07-02T05:25:20;100920.72;;;14.93;82.82
71772;BME280;59606;52.138;5.424;2023-07-02T05:27:46;100918.13;;;15.04;82.79
71772;BME280;59606;52.138;5.424;2023-07-02T05:30:14;100927.75;;;15.17;83.52
71772;BME280;59606;52.138;5.424;2023-07-02T05:32:42;100922.69;;;15.26;83.02
71772;BME280;59606;52.138;5.424;2023-07-02T05:35:08;100919.59;;;15.32;82.30
71772;BME280;59606;52.138;5.424;2023-07-02T05:37:35;100929.75;;;15.37;82.49
71772;BME280;59606;52.138;5.424;2023-07-02T05:40:01;100926.31;;;15.37;81.71
71772;BME280;59606;52.138;5.424;2023-07-02T05:42:28;100932.25;;;15.39;81.64
71772;BME280;59606;52.138;5.424;2023-07-02T05:44:54;100932.16;;;15.40;81.73
71772;BME280;59606;52.138;5.424;2023-07-02T05:47:21;100934.34;;;15.46;82.61
71772;BME280;59606;52.138;5.424;2023-07-02T05:49:47;100938.06;;;15.55;81.98
71772;BME280;59606;52.138;5.424;2023-07-02T05:52:14;100944.66;;;15.61;81.42
71772;BME280;59606;52.138;5.424;2023-07-02T05:54:40;100937.06;;;15.69;80.59
71772;BME280;59606;52.138;5.424;2023-07-02T05:57:07;100939.97;;;15.77;80.74
71772;BME280;59606;52.138;5.424;2023-07-02T05:59:34;100938.09;;;15.90;80.75
71772;BME280;59606;52.138;5.424;2023-07-02T06:02:00;100940.59;;;15.92;79.47
71772;BME280;59606;52.138;5.424;2023-07-02T06:04:27;100944.78;;;16.06;80.73
71772;BME280;59606;52.138;5.424;2023-07-02T06:06:54;100944.69;;;16.18;78.85
71772;BME280;59606;52.138;5.424;2023-07-02T06:09:20;100947.31;;;16.30;77.99
71772;BME280;59606;52.138;5.424;2023-07-02T06:11:47;100948.06;;;16.43;78.17
71772;BME280;59606;52.138;5.424;2023-07-02T06:14:13;100948.44;;;16.61;77.01
71772;BME280;59606;52.138;5.424;2023-07-02T06:16:40;100946.28;;;16.88;78.06
71772;BME280;59606;52.138;5.424;2023-07-02T06:19:07;100952.34;;;17.11;75.36
71772;BME280;59606;52.138;5.424;2023-07-02T06:21:33;100954.28;;;17.41;73.69
71772;BME280;59606;52.138;5.424;2023-07-02T06:24:01;100954.69;;;17.58;71.94
71772;BME280;59606;52.138;5.424;2023-07-02T06:26:28;100955.19;;;17.52;70.80
71772;BME280;59606;52.138;5.424;2023-07-02T06:28:55;100957.34;;;17.47;72.06
71772;BME280;59606;52.138;5.424;2023-07-02T06:31:21;100963.25;;;17.39;70.67
71772;BME280;59606;52.138;5.424;2023-07-02T06:33:48;100962.13;;;17.20;72.02
71772;BME280;59606;52.138;5.424;2023-07-02T06:36:14;100962.72;;;17.13;71.39
71772;BME280;59606;52.138;5.424;2023-07-02T06:38:43;100960.72;;;17.05;72.44
71772;BME280;59606;52.138;5.424;2023-07-02T06:41:10;100963.97;;;16.98;71.97
71772;BME280;59606;52.138;5.424;2023-07-02T06:43:37;100960.38;;;16.99;72.76
71772;BME280;59606;52.138;5.424;2023-07-02T06:46:03;100966.72;;;16.96;71.87
71772;BME280;59606;52.138;5.424;2023-07-02T06:48:30;100971.13;;;16.95;72.83
71772;BME280;59606;52.138;5.424;2023-07-02T06:50:56;100983.34;;;16.96;70.66
71772;BME280;59606;52.138;5.424;2023-07-02T06:53:23;100981.91;;;16.92;71.24
71772;BME280;59606;52.138;5.424;2023-07-02T06:55:49;100991.50;;;16.93;71.63
71772;BME280;59606;52.138;5.424;2023-07-02T06:58:16;100994.03;;;16.84;70.07
71772;BME280;59606;52.138;5.424;2023-07-02T07:00:42;100992.56;;;16.80;71.25
71772;BME280;59606;52.138;5.424;2023-07-02T07:03:09;100991.00;;;16.88;71.63
71772;BME280;59606;52.138;5.424;2023-07-02T07:05:35;100995.41;;;16.99;70.69
71772;BME280;59606;52.138;5.424;2023-07-02T07:08:02;101000.41;;;17.13;70.31
71772;BME280;59606;52.138;5.424;2023-07-02T07:10:28;101000.28;;;17.26;69.52
71772;BME280;59606;52.138;5.424;2023-07-02T07:13:03;101009.59;;;17.41;68.37
71772;BME280;59606;52.138;5.424;2023-07-02T07:15:33;101007.28;;;17.48;65.93
71772;BME280;59606;52.138;5.424;2023-07-02T07:18:01;101010.66;;;17.39;66.31
71772;BME280;59606;52.138;5.424;2023-07-02T07:20:28;101014.03;;;17.30;66.67
71772;BME280;59606;52.138;5.424;2023-07-02T07:22:55;101015.88;;;17.18;66.05
71772;BME280;59606;52.138;5.424;2023-07-02T07:25:22;101018.59;;;17.16;67.25
71772;BME280;59606;52.138;5.424;2023-07-02T07:27:49;101022.06;;;17.28;67.86
71772;BME280;59606;52.138;5.424;2023-07-02T07:30:15;101030.66;;;17.41;67.39
71772;BME280;59606;52.138;5.424;2023-07-02T07:32:52;101029.41;;;17.57;67.42
71772;BME280;59606;52.138;5.424;2023-07-02T07:35:22;101044.28;;;17.58;64.85
71772;BME280;59606;52.138;5.424;2023-07-02T07:37:49;101045.50;;;17.42;63.25
71772;BME280;59606;52.138;5.424;2023-07-02T07:40:15;101037.50;;;17.33;61.92
71772;BME280;59606;52.138;5.424;2023-07-02T07:42:42;101034.75;;;17.34;61.16
71772;BME280;59606;52.138;5.424;2023-07-02T07:45:10;101035.19;;;17.39;64.16
71772;BME280;59606;52.138;5.424;2023-07-02T07:47:38;101032.63;;;17.60;63.10
71772;BME280;59606;52.138;5.424;2023-07-02T07:50:06;101035.72;;;17.77;63.30
71772;BME280;59606;52.138;5.424;2023-07-02T07:52:40;101031.44;;;17.97;62.49
71772;BME280;59606;52.138;5.424;2023-07-02T07:55:07;101047.78;;;18.11;58.90
71772;BME280;59606;52.138;5.424;2023-07-02T07:57:36;101049.03;;;18.28;58.72
71772;BME280;59606;52.138;5.424;2023-07-02T08:00:04;101048.63;;;18.33;57.74
71772;BME280;59606;52.138;5.424;2023-07-02T08:02:32;101042.19;;;18.26;57.38
71772;BME280;59606;52.138;5.424;2023-07-02T08:04:59;101048.16;;;18.07;55.87
71772;BME280;59606;52.138;5.424;2023-07-02T08:07:25;101047.84;;;18.00;57.34
71772;BME280;59606;52.138;5.424;2023-07-02T08:09:53;101054.97;;;18.09;58.44
71772;BME280;59606;52.138;5.424;2023-07-02T08:12:19;101043.28;;;18.23;57.80
71772;BME280;59606;52.138;5.424;2023-07-02T08:14:46;101055.44;;;18.35;57.63
71772;BME280;59606;52.138;5.424;2023-07-02T08:17:12;101047.66;;;18.34;56.88
71772;BME280;59606;52.138;5.424;2023-07-02T08:19:39;101055.56;;;18.34;58.48
71772;BME280;59606;52.138;5.424;2023-07-02T08:22:06;101049.66;;;18.42;57.59
71772;BME280;59606;52.138;5.424;2023-07-02T08:24:32;101055.84;;;18.31;58.61
71772;BME280;59606;52.138;5.424;2023-07-02T08:26:59;101057.94;;;18.37;60.04
71772;BME280;59606;52.138;5.424;2023-07-02T08:29:31;101056.78;;;18.30;57.58
71772;BME280;59606;52.138;5.424;2023-07-02T08:32:00;101061.56;;;18.36;57.24
71772;BME280;59606;52.138;5.424;2023-07-02T08:34:26;101057.63;;;18.51;57.38
71772;BME280;59606;52.138;5.424;2023-07-02T08:36:53;101058.59;;;18.50;55.51
71772;BME280;59606;52.138;5.424;2023-07-02T08:39:20;101067.09;;;18.33;54.77
71772;BME280;59606;52.138;5.424;2023-07-02T08:41:48;101073.38;;;18.21;55.27
71772;BME280;59606;52.138;5.424;2023-07-02T08:44:19;101066.28;;;18.00;56.39
71772;BME280;59606;52.138;5.424;2023-07-02T08:46:46;101069.31;;;17.96;57.58
71772;BME280;59606;52.138;5.424;2023-07-02T08:49:17;101081.44;;;18.19;57.20
71772;BME280;59606;52.138;5.424;2023-07-02T08:51:45;101084.00;;;18.30;55.18
71772;BME280;59606;52.138;5.424;2023-07-02T08:54:12;101084.84;;;18.52;53.97
71772;BME280;59606;52.138;5.424;2023-07-02T08:56:40;101087.50;;;18.73;52.34
71772;BME280;59606;52.138;5.424;2023-07-02T08:59:07;101069.19;;;18.81;52.02
71772;BME280;59606;52.138;5.424;2023-07-02T09:01:45;101073.38;;;18.63;52.35
71772;BME280;59606;52.138;5.424;2023-07-02T09:04:22;101083.75;;;18.54;53.40
71772;BME280;59606;52.138;5.424;2023-07-02T09:07:02;101079.38;;;18.65;53.39
71772;BME280;59606;52.138;5.424;2023-07-02T09:09:29;101083.03;;;18.52;54.54
71772;BME280;59606;52.138;5.424;2023-07-02T09:11:56;101085.75;;;18.41;55.00
71772;BME280;59606;52.138;5.424;2023-07-02T09:14:27;101090.00;;;18.32;55.46
71772;BME280;59606;52.138;5.424;2023-07-02T09:17:07;101091.63;;;18.45;56.77
71772;BME280;59606;52.138;5.424;2023-07-02T09:19:36;101090.84;;;18.75;55.09
71772;BME280;59606;52.138;5.424;2023-07-02T09:22:03;101093.72;;;18.93;55.32
71772;BME280;59606;52.138;5.424;2023-07-02T09:24:31;101082.09;;;19.15;56.06
71772;BME280;59606;52.138;5.424;2023-07-02T09:27:01;101069.66;;;19.26;53.84
71772;BME280;59606;52.138;5.424;2023-07-02T09:29:30;101085.41;;;19.47;53.99
71772;BME280;59606;52.138;5.424;2023-07-02T09:32:01;101071.66;;;19.53;54.23
71772;BME280;59606;52.138;5.424;2023-07-02T09:34:38;101081.63;;;19.40;51.64
71772;BME280;59606;52.138;5.424;2023-07-02T09:37:06;101078.09;;;19.20;51.61
71772;BME280;59606;52.138;5.424;2023-07-02T09:39:34;101088.06;;;19.07;51.07
71772;BME280;59606;52.138;5.424;2023-07-02T09:42:08;101092.50;;;19.06;51.67
71772;BME280;59606;52.138;5.424;2023-07-02T09:44:36;101094.44;;;19.04;49.63
71772;BME280;59606;52.138;5.424;2023-07-02T09:49:37;101090.34;;;18.91;48.81
71772;BME280;59606;52.138;5.424;2023-07-02T09:52:06;101099.41;;;18.88;49.15
71772;BME280;59606;52.138;5.424;2023-07-02T09:54:33;101085.72;;;19.14;48.14
71772;BME280;59606;52.138;5.424;2023-07-02T09:57:00;101082.63;;;19.39;48.83
71772;BME280;59606;52.138;5.424;2023-07-02T09:59:27;101083.09;;;19.64;49.57
71772;BME280;59606;52.138;5.424;2023-07-02T10:01:54;101080.22;;;19.96;48.26
71772;BME280;59606;52.138;5.424;2023-07-02T10:04:21;101078.81;;;20.21;46.63
71772;BME280;59606;52.138;5.424;2023-07-02T10:06:53;101083.81;;;20.43;47.23
71772;BME280;59606;52.138;5.424;2023-07-02T10:09:34;101080.72;;;20.38;45.06
71772;BME280;59606;52.138;5.424;2023-07-02T10:12:14;101095.13;;;20.07;43.62
71772;BME280;59606;52.138;5.424;2023-07-02T10:14:44;101097.06;;;20.14;44.82
71772;BME280;59606;52.138;5.424;2023-07-02T10:17:23;101094.41;;;20.14;44.47
71772;BME280;59606;52.138;5.424;2023-07-02T10:19:51;101075.75;;;20.06;41.55
71772;BME280;59606;52.138;5.424;2023-07-02T10:22:19;101100.69;;;20.13;40.79
71772;BME280;59606;52.138;5.424;2023-07-02T10:27:18;101097.31;;;20.31;38.35
71772;BME280;59606;52.138;5.424;2023-07-02T10:29:51;101092.13;;;20.48;39.96
71772;BME280;59606;52.138;5.424;2023-07-02T10:32:27;101095.63;;;20.49;42.37
71772;BME280;59606;52.138;5.424;2023-07-02T10:34:55;101100.66;;;20.42;42.77
71772;BME280;59606;52.138;5.424;2023-07-02T10:37:21;101111.25;;;20.23;40.62
71772;BME280;59606;52.138;5.424;2023-07-02T10:39:48;101114.88;;;20.12;43.03
71772;BME280;59606;52.138;5.424;2023-07-02T10:42:15;101110.97;;;20.26;43.48
71772;BME280;59606;52.138;5.424;2023-07-02T10:44:51;101114.84;;;20.32;44.89
71772;BME280;59606;52.138;5.424;2023-07-02T10:47:19;101116.94;;;20.28;45.86
71772;BME280;59606;52.138;5.424;2023-07-02T10:49:45;101113.19;;;20.21;47.33
71772;BME280;59606;52.138;5.424;2023-07-02T10:52:12;101112.25;;;20.12;47.00
71772;BME280;59606;52.138;5.424;2023-07-02T10:54:46;101104.69;;;19.98;46.07
71772;BME280;59606;52.138;5.424;2023-07-02T10:57:14;101118.34;;;19.93;44.61
71772;BME280;59606;52.138;5.424;2023-07-02T10:59:47;101123.91;;;19.81;46.99
71772;BME280;59606;52.138;5.424;2023-07-02T11:02:15;101122.34;;;19.78;45.18
71772;BME280;59606;52.138;5.424;2023-07-02T11:04:42;101117.19;;;19.67;46.98
71772;BME280;59606;52.138;5.424;2023-07-02T11:07:10;101123.06;;;19.70;45.22
71772;BME280;59606;52.138;5.424;2023-07-02T11:09:37;101121.50;;;19.68;45.69
71772;BME280;59606;52.138;5.424;2023-07-02T11:12:04;101124.69;;;19.62;44.65
71772;BME280;59606;52.138;5.424;2023-07-02T11:16:58;101133.72;;;19.59;44.08
71772;BME280;59606;52.138;5.424;2023-07-02T11:19:26;101129.53;;;19.57;44.64
71772;BME280;59606;52.138;5.424;2023-07-02T11:21:53;101119.69;;;19.68;45.05
71772;BME280;59606;52.138;5.424;2023-07-02T11:24:35;101129.50;;;19.97;45.08
71772;BME280;59606;52.138;5.424;2023-07-02T11:27:03;101135.50;;;20.09;44.06
71772;BME280;59606;52.138;5.424;2023-07-02T11:29:32;101140.34;;;20.04;44.68
71772;BME280;59606;52.138;5.424;2023-07-02T11:32:09;101130.88;;;20.01;45.66
71772;BME280;59606;52.138;5.424;2023-07-02T11:34:37;101134.66;;;20.28;45.81
71772;BME280;59606;52.138;5.424;2023-07-02T11:37:04;101142.28;;;20.50;44.02
71772;BME280;59606;52.138;5.424;2023-07-02T11:39:33;101132.81;;;20.77;43.87
71772;BME280;59606;52.138;5.424;2023-07-02T11:42:00;101136.78;;;21.00;41.88
71772;BME280;59606;52.138;5.424;2023-07-02T11:44:26;101128.50;;;21.13;42.73
71772;BME280;59606;52.138;5.424;2023-07-02T11:46:53;101130.38;;;21.40;43.01
71772;BME280;59606;52.138;5.424;2023-07-02T11:49:19;101126.22;;;21.55;40.93
71772;BME280;59606;52.138;5.424;2023-07-02T11:51:47;101134.19;;;21.55;40.34
71772;BME280;59606;52.138;5.424;2023-07-02T11:54:16;101130.06;;;21.71;40.39
71772;BME280;59606;52.138;5.424;2023-07-02T11:56:42;101132.97;;;21.50;38.71
71772;BME280;59606;52.138;5.424;2023-07-02T11:59:09;101135.44;;;21.24;40.71
71772;BME280;59606;52.138;5.424;2023-07-02T12:01:36;101139.03;;;20.85;40.50
71772;BME280;59606;52.138;5.424;2023-07-02T12:04:03;101143.69;;;20.74;39.85
71772;BME280;59606;52.138;5.424;2023-07-02T12:06:31;101147.06;;;20.56;40.58
71772;BME280;59606;52.138;5.424;2023-07-02T12:08:58;101141.88;;;20.74;40.73
71772;BME280;59606;52.138;5.424;2023-07-02T12:11:25;101154.53;;;20.80;39.53
71772;BME280;59606;52.138;5.424;2023-07-02T12:13:52;101136.38;;;20.85;39.50
71772;BME280;59606;52.138;5.424;2023-07-02T12:16:18;101148.94;;;20.93;42.09
71772;BME280;59606;52.138;5.424;2023-07-02T12:18:45;101150.38;;;21.15;41.76
71772;BME280;59606;52.138;5.424;2023-07-02T12:21:11;101148.66;;;21.33;41.61
71772;BME280;59606;52.138;5.424;2023-07-02T12:23:38;101149.59;;;21.42;40.00
71772;BME280;59606;52.138;5.424;2023-07-02T12:26:04;101154.78;;;21.34;39.22
71772;BME280;59606;52.138;5.424;2023-07-02T12:28:31;101162.47;;;21.27;39.78
71772;BME280;59606;52.138;5.424;2023-07-02T12:30:57;101157.19;;;21.27;40.35
71772;BME280;59606;52.138;5.424;2023-07-02T12:33:24;101160.75;;;21.46;40.08
71772;BME280;59606;52.138;5.424;2023-07-02T12:35:50;101152.94;;;21.44;38.80
71772;BME280;59606;52.138;5.424;2023-07-02T12:38:17;101164.59;;;21.24;40.03
71772;BME280;59606;52.138;5.424;2023-07-02T12:40:43;101164.28;;;21.27;39.11
71772;BME280;59606;52.138;5.424;2023-07-02T12:43:10;101162.72;;;21.44;40.33
71772;BME280;59606;52.138;5.424;2023-07-02T12:45:36;101148.44;;;21.54;40.84
71772;BME280;59606;52.138;5.424;2023-07-02T12:48:03;101161.28;;;21.77;39.33
71772;BME280;59606;52.138;5.424;2023-07-02T12:50:30;101165.09;;;21.47;38.39
71772;BME280;59606;52.138;5.424;2023-07-02T12:52:56;101159.00;;;21.27;38.93
71772;BME280;59606;52.138;5.424;2023-07-02T12:55:23;101164.44;;;21.25;40.69
71772;BME280;59606;52.138;5.424;2023-07-02T12:57:49;101159.09;;;21.45;39.31
71772;BME280;59606;52.138;5.424;2023-07-02T13:00:16;101172.38;;;21.62;40.60